Time;durP1;ratioP1;P1;durP2;ratioP2;P2;SDS_P1;SDS_P2;PMS_P1;PMS_P2;Temp;Humidity;BMP_temperature;BMP_pressure;BME280_temperature;BME280_humidity;BME280_pressure;Samples;Min_cycle;Max_cycle;Signal;HPM_P1;HPM_P2
2021/08/29 00:01:51;;;;;;;5.90;4.77;;;;;;;16.62;76.13;101619.38;6179368;28;20273;-52
2021/08/29 00:05:12;;;;;;;4.87;4.33;;;;;;;16.54;76.04;101627.41;6191866;28;20225;-48
2021/08/29 00:08:35;;;;;;;5.37;3.83;;;;;;;16.42;76.28;101625.06;6192251;28;20320;-51
2021/08/29 00:11:56;;;;;;;4.93;3.90;;;;;;;16.54;76.08;101618.66;6173744;28;20317;-54
2021/08/29 00:15:19;;;;;;;5.23;4.13;;;;;;;16.54;76.10;101623.94;6178228;28;20253;-51
2021/08/29 00:18:40;;;;;;;6.23;5.63;;;;;;;16.79;75.66;101618.13;6183214;28;20257;-52
2021/08/29 00:22:01;;;;;;;6.53;5.43;;;;;;;16.76;75.35;101618.19;6183768;28;20345;-53
2021/08/29 00:25:24;;;;;;;4.00;3.60;;;;;;;16.71;75.42;101616.53;6169652;28;20234;-51
2021/08/29 00:28:44;;;;;;;3.00;2.70;;;;;;;16.29;77.04;101607.78;6171800;28;20241;-53
2021/08/29 00:32:06;;;;;;;2.97;2.33;;;;;;;16.36;76.94;101613.78;6174105;28;20691;-50
2021/08/29 00:35:29;;;;;;;2.80;2.60;;;;;;;16.47;76.27;101607.41;6186290;28;20231;-50
2021/08/29 00:38:50;;;;;;;3.65;3.33;;;;;;;16.57;76.29;101610.69;6177293;28;20523;-54
2021/08/29 00:42:12;;;;;;;4.40;2.50;;;;;;;16.57;76.11;101613.31;6186006;28;20506;-54
2021/08/29 00:45:37;;;;;;;3.30;2.97;;;;;;;16.53;76.09;101609.88;6170090;28;20222;-53
2021/08/29 00:48:58;;;;;;;4.20;3.10;;;;;;;16.61;75.26;101615.00;6169026;28;20230;-49
2021/08/29 00:52:20;;;;;;;4.23;3.83;;;;;;;16.62;75.29;101600.97;6163391;28;20234;-50
2021/08/29 00:55:41;;;;;;;5.70;4.47;;;;;;;16.66;75.66;101601.75;6161164;28;20825;-51
2021/08/29 00:59:03;;;;;;;4.37;3.83;;;;;;;16.79;75.22;101607.59;6164663;28;20274;-51
2021/08/29 01:02:27;;;;;;;4.33;3.90;;;;;;;16.73;75.17;101598.97;6183085;28;20242;-54
2021/08/29 01:06:00;;;;;;;3.60;2.83;;;;;;;16.59;75.29;101603.63;6191273;28;20584;-51
2021/08/29 01:09:51;;;;;;;5.90;4.77;;;;;;;16.67;75.32;101598.22;6175908;28;20837;-54
2021/08/29 01:13:23;;;;;;;3.70;2.80;;;;;;;16.44;76.34;101594.34;6170131;28;20234;-51
2021/08/29 01:16:48;;;;;;;3.70;3.40;;;;;;;16.37;76.71;101583.97;6173439;28;20783;-55
2021/08/29 01:20:19;;;;;;;6.53;4.27;;;;;;;16.43;76.60;101589.97;6180093;28;20612;-48
2021/08/29 01:23:43;;;;;;;8.40;6.40;;;;;;;16.57;76.25;101587.03;6187096;28;20329;-53
2021/08/29 01:27:13;;;;;;;4.00;3.00;;;;;;;16.68;75.71;101592.06;6176029;28;20237;-52
2021/08/29 01:30:36;;;;;;;5.63;3.57;;;;;;;16.51;76.21;101582.78;6172875;28;20331;-47
2021/08/29 01:34:01;;;;;;;3.80;2.70;;;;;;;16.49;76.47;101583.72;6187735;28;20226;-51
2021/08/29 01:37:24;;;;;;;3.47;2.97;;;;;;;16.47;76.52;101580.25;6188287;28;20241;-54
2021/08/29 01:40:45;;;;;;;3.63;3.33;;;;;;;16.43;76.80;101584.69;6166115;28;20563;-53
2021/08/29 01:44:08;;;;;;;5.00;3.73;;;;;;;16.40;76.48;101586.53;6175448;28;20256;-49
2021/08/29 01:47:31;;;;;;;6.77;4.27;;;;;;;16.41;77.19;101580.38;6175579;28;20642;-48
2021/08/29 01:50:53;;;;;;;3.40;3.03;;;;;;;16.42;76.90;101582.09;6181980;28;20253;-49
2021/08/29 01:54:34;;;;;;;6.17;5.43;;;;;;;16.47;76.77;101577.63;6186142;28;20231;-49
2021/08/29 01:58:04;;;;;;;3.80;3.10;;;;;;;16.41;76.38;101583.00;6177779;28;20557;-51
2021/08/29 02:01:28;;;;;;;3.17;2.87;;;;;;;16.26;77.14;101587.69;6173456;28;20234;-50
2021/08/29 02:04:56;;;;;;;3.53;3.23;;;;;;;16.21;77.67;101573.78;6180940;28;20684;-52
2021/08/29 02:08:25;;;;;;;4.80;3.87;;;;;;;16.33;77.37;101577.91;6172455;28;20241;-48
2021/08/29 02:12:08;;;;;;;7.13;4.57;;;;;;;16.16;77.74;101580.03;6179736;28;20253;-50
2021/08/29 02:15:35;;;;;;;4.30;2.93;;;;;;;16.06;78.89;101572.31;6193501;28;20234;-49
2021/08/29 02:18:57;;;;;;;2.90;2.60;;;;;;;16.28;77.62;101579.75;6166331;28;20234;-52
2021/08/29 02:22:22;;;;;;;6.43;4.57;;;;;;;16.39;77.38;101583.03;6184544;28;20603;-51
2021/08/29 02:25:46;;;;;;;6.47;4.60;;;;;;;16.51;76.91;101574.88;6179418;28;20241;-51
2021/08/29 02:29:09;;;;;;;3.20;2.90;;;;;;;16.40;77.16;101578.63;6188647;28;20550;-51
2021/08/29 02:32:30;;;;;;;4.40;4.00;;;;;;;16.31;77.55;101569.19;6172781;28;20237;-52
2021/08/29 02:35:52;;;;;;;3.83;3.53;;;;;;;16.32;77.53;101563.91;6169532;28;20336;-54
2021/08/29 02:39:21;;;;;;;18.33;4.50;;;;;;;16.29;77.64;101563.13;6140031;28;20260;-55
2021/08/29 02:42:42;;;;;;;3.20;2.90;;;;;;;16.21;77.78;101558.03;6173955;28;20674;-53
2021/08/29 02:46:06;;;;;;;4.33;3.43;;;;;;;16.46;77.00;101562.72;6164588;28;20317;-54
2021/08/29 02:49:28;;;;;;;6.90;3.73;;;;;;;16.32;77.27;101557.78;6188465;28;20229;-49
2021/08/29 02:52:50;;;;;;;3.60;3.23;;;;;;;16.37;77.35;101557.69;6169616;28;20532;-50
2021/08/29 02:56:14;;;;;;;4.33;3.50;;;;;;;16.45;76.83;101555.75;6180366;28;20261;-49
2021/08/29 02:59:36;;;;;;;4.83;2.90;;;;;;;16.34;76.80;101553.34;6145622;28;20234;-52
2021/08/29 03:02:56;;;;;;;4.23;3.80;;;;;;;16.58;76.04;101562.47;6189674;28;20262;-51
2021/08/29 03:06:20;;;;;;;3.33;3.03;;;;;;;16.34;76.75;101555.97;6176431;28;20233;-55
2021/08/29 03:09:41;;;;;;;4.80;2.83;;;;;;;16.25;77.38;101549.16;6174984;28;20246;-54
2021/08/29 03:13:04;;;;;;;3.70;2.83;;;;;;;16.27;77.10;101557.03;6184151;28;20726;-52
2021/08/29 03:16:35;;;;;;;3.50;3.20;;;;;;;16.35;77.06;101552.47;6183205;28;20564;-51
2021/08/29 03:20:10;;;;;;;3.33;2.77;;;;;;;16.28;77.53;101538.56;6160320;28;20245;-51
2021/08/29 03:23:46;;;;;;;3.30;3.00;;;;;;;16.33;76.93;101539.34;6163943;28;20234;-54
2021/08/29 03:27:08;;;;;;;3.23;3.00;;;;;;;16.33;77.05;101536.72;6170615;28;20530;-54
2021/08/29 03:30:30;;;;;;;4.83;3.33;;;;;;;16.31;77.48;101546.41;6186521;28;20225;-47
2021/08/29 03:33:55;;;;;;;3.17;2.15;;;;;;;16.34;77.33;101534.94;6173167;28;20234;-54
2021/08/29 03:37:16;;;;;;;4.27;3.17;;;;;;;16.29;77.23;101535.06;6177928;28;20225;-49
2021/08/29 03:40:42;;;;;;;3.57;3.20;;;;;;;16.36;77.29;101534.91;6171697;28;20234;-49
2021/08/29 03:44:03;;;;;;;2.90;2.57;;;;;;;16.27;77.30;101534.22;6178119;28;20238;-53
2021/08/29 03:47:31;;;;;;;3.57;2.63;;;;;;;16.25;77.98;101532.53;6171126;28;20247;-55
2021/08/29 03:50:53;;;;;;;4.37;3.27;;;;;;;16.28;77.72;101528.06;6162328;28;20225;-53
2021/08/29 03:54:15;;;;;;;3.80;3.00;;;;;;;16.27;78.17;101526.34;6173259;28;20745;-49
2021/08/29 03:57:38;;;;;;;3.57;2.93;;;;;;;16.13;78.59;101528.41;6184656;28;20229;-51
2021/08/29 04:00:59;;;;;;;3.37;2.93;;;;;;;16.06;78.59;101527.66;6137665;28;20239;-52
2021/08/29 04:04:21;;;;;;;4.27;2.80;;;;;;;16.23;77.87;101527.31;6177946;28;20615;-54
2021/08/29 04:07:45;;;;;;;3.50;2.67;;;;;;;16.19;78.16;101520.41;6165950;28;20451;-50
2021/08/29 04:11:09;;;;;;;3.00;2.80;;;;;;;16.03;78.77;101521.59;6165866;28;20230;-52
2021/08/29 04:14:31;;;;;;;2.60;2.40;;;;;;;16.06;79.33;101525.03;6154943;28;20246;-48
2021/08/29 04:17:54;;;;;;;2.40;2.20;;;;;;;16.21;78.49;101531.75;6174131;28;20565;-54
2021/08/29 04:21:19;;;;;;;3.07;2.40;;;;;;;16.19;78.20;101536.16;6164887;28;20242;-53
2021/08/29 04:24:41;;;;;;;3.27;2.80;;;;;;;16.10;78.45;101536.34;6174336;28;20233;-52
2021/08/29 04:28:02;;;;;;;4.33;3.93;;;;;;;16.37;77.83;101531.41;6178909;28;20252;-48
2021/08/29 04:31:28;;;;;;;3.50;3.20;;;;;;;16.26;78.17;101534.25;6177658;28;20238;-49
2021/08/29 04:34:52;;;;;;;2.90;2.70;;;;;;;16.13;78.23;101531.03;6173775;28;20229;-54
2021/08/29 04:38:23;;;;;;;3.43;3.13;;;;;;;16.13;78.91;101529.28;6202549;28;20511;-49
2021/08/29 04:41:44;;;;;;;4.27;3.03;;;;;;;16.02;79.56;101533.03;6183565;28;20226;-52
2021/08/29 04:45:06;;;;;;;3.00;2.80;;;;;;;16.23;78.68;101535.19;6191184;28;20261;-49
2021/08/29 04:48:28;;;;;;;3.00;2.80;;;;;;;16.01;79.75;101539.16;6187359;28;20233;-50
2021/08/29 04:51:49;;;;;;;3.43;3.13;;;;;;;16.03;79.68;101537.34;6163012;28;20229;-51
2021/08/29 04:55:12;;;;;;;7.73;2.97;;;;;;;15.96;79.70;101536.63;6177559;28;20230;-54
2021/08/29 04:58:33;;;;;;;3.00;2.77;;;;;;;16.11;79.61;101535.44;6170914;28;20229;-52
2021/08/29 05:01:54;;;;;;;2.67;2.47;;;;;;;16.28;78.70;101528.06;6172829;28;20237;-51
2021/08/29 05:05:16;;;;;;;3.10;2.67;;;;;;;16.17;78.99;101534.44;6183026;28;20361;-53
2021/08/29 05:08:37;;;;;;;3.17;2.87;;;;;;;16.24;79.08;101534.28;6162425;28;20226;-49
2021/08/29 05:12:00;;;;;;;4.03;2.80;;;;;;;16.10;79.06;101528.47;6176568;28;20242;-49
2021/08/29 05:15:22;;;;;;;2.83;2.63;;;;;;;16.26;78.88;101535.13;6177828;28;20217;-49
2021/08/29 05:18:44;;;;;;;2.70;2.50;;;;;;;16.28;78.95;101540.34;6189103;28;20249;-52
2021/08/29 05:22:12;;;;;;;4.33;3.03;;;;;;;16.36;78.54;101534.91;6179335;28;20226;-54
2021/08/29 05:25:47;;;;;;;2.60;2.40;;;;;;;16.43;78.18;101544.41;6186681;28;20233;-48
2021/08/29 05:29:10;;;;;;;2.57;2.37;;;;;;;16.40;78.57;101539.22;6166201;28;20242;-48
2021/08/29 05:32:31;;;;;;;2.93;2.77;;;;;;;16.19;79.12;101537.91;6154841;28;20542;-51
2021/08/29 05:35:53;;;;;;;4.90;2.77;;;;;;;16.09;79.52;101539.84;6173650;28;20515;-46
2021/08/29 05:39:14;;;;;;;5.10;2.73;;;;;;;16.31;79.31;101548.19;6182824;28;20474;-48
2021/08/29 05:42:35;;;;;;;2.40;2.20;;;;;;;16.33;79.35;101543.75;6177539;28;20234;-52
2021/08/29 05:46:05;;;;;;;2.50;2.33;;;;;;;16.39;78.98;101546.25;6174498;28;20233;-49
2021/08/29 05:49:26;;;;;;;2.60;2.40;;;;;;;16.51;78.39;101545.09;6190653;28;20229;-49
2021/08/29 05:52:47;;;;;;;2.87;2.60;;;;;;;16.58;78.32;101546.72;6169092;28;20256;-49
2021/08/29 05:56:08;;;;;;;2.77;2.00;;;;;;;16.52;78.01;101541.59;6179351;28;20238;-49
2021/08/29 05:59:29;;;;;;;3.77;2.83;;;;;;;16.40;79.05;101541.84;6164278;28;20230;-49
2021/08/29 06:02:51;;;;;;;3.27;2.50;;;;;;;16.58;78.14;101541.44;6184672;28;20834;-47
2021/08/29 06:06:13;;;;;;;2.47;2.27;;;;;;;16.59;78.46;101551.06;6173228;28;20233;-52
2021/08/29 06:09:42;;;;;;;2.77;2.57;;;;;;;16.76;78.14;101547.19;6174480;28;20229;-53
2021/08/29 06:13:03;;;;;;;2.07;1.97;;;;;;;16.58;78.42;101546.72;6169205;28;20234;-49
2021/08/29 06:16:27;;;;;;;2.53;2.33;;;;;;;16.73;78.16;101541.09;6168971;28;20604;-53
2021/08/29 06:19:49;;;;;;;2.80;2.27;;;;;;;16.73;78.34;101546.34;6178199;28;20235;-54
2021/08/29 06:23:11;;;;;;;2.10;2.00;;;;;;;16.70;78.17;101537.66;6163819;28;20607;-50
2021/08/29 06:26:50;;;;;;;2.00;1.80;;;;;;;16.72;78.57;101541.97;6171593;28;20242;-56
2021/08/29 06:30:49;;;;;;;2.10;1.90;;;;;;;16.88;77.96;101533.75;6185380;28;20233;-50
2021/08/29 06:34:28;;;;;;;2.90;2.70;;;;;;;16.97;77.97;101541.44;6179466;28;20233;-53
2021/08/29 06:37:53;;;;;;;2.57;2.33;;;;;;;16.95;77.76;101542.41;6195859;28;20226;-50
2021/08/29 06:41:14;;;;;;;2.63;2.27;;;;;;;16.84;78.53;101547.91;6174937;28;20235;-56
2021/08/29 06:44:35;;;;;;;1.97;1.87;;;;;;;16.93;77.88;101542.44;6180093;28;20241;-50
2021/08/29 06:48:15;;;;;;;2.53;2.33;;;;;;;16.78;78.30;101537.50;6189167;28;20234;-54
2021/08/29 06:51:54;;;;;;;3.50;3.20;;;;;;;16.77;79.14;101541.00;6187916;28;20703;-49
2021/08/29 06:55:35;;;;;;;2.60;2.00;;;;;;;16.78;78.86;101540.97;6180382;28;20855;-54
2021/08/29 06:59:34;;;;;;;2.00;1.67;;;;;;;16.84;78.94;101543.50;6175295;28;20264;-53
2021/08/29 07:02:55;;;;;;;2.00;1.90;;;;;;;16.81;79.23;101534.78;6170481;28;20611;-49
2021/08/29 07:06:17;;;;;;;2.53;2.00;;;;;;;16.81;79.11;101533.03;6166306;28;20242;-54
2021/08/29 07:09:56;;;;;;;2.37;2.27;;;;;;;16.93;78.61;101532.75;6177577;28;20234;-52
2021/08/29 07:13:19;;;;;;;2.33;1.80;;;;;;;17.08;77.83;101526.28;6162206;28;20320;-50
2021/08/29 07:16:41;;;;;;;1.87;1.77;;;;;;;17.10;78.03;101532.34;6168729;28;20774;-52
2021/08/29 07:20:03;;;;;;;3.07;1.70;;;;;;;17.09;78.24;101533.25;6171622;28;20267;-52
2021/08/29 07:23:42;;;;;;;2.47;2.00;;;;;;;17.31;77.73;101533.59;6180913;28;20226;-54
2021/08/29 07:27:21;;;;;;;1.60;1.50;;;;;;;17.34;77.24;101537.91;6168578;28;20217;-51
2021/08/29 07:31:10;;;;;;;2.10;1.73;;;;;;;17.48;77.03;101525.22;6160950;28;20234;-48
2021/08/29 07:34:31;;;;;;;2.53;2.10;;;;;;;17.76;76.88;101534.13;6169598;28;20222;-52
2021/08/29 07:38:18;;;;;;;4.00;3.50;;;;;;;17.70;76.35;101533.41;6177021;28;20600;-49
2021/08/29 07:41:39;;;;;;;6.07;5.63;;;;;;;17.67;76.64;101540.53;6185995;28;20233;-53
2021/08/29 07:44:59;;;;;;;6.60;6.00;;;;;;;17.57;77.20;101536.44;6187651;28;20256;-49
2021/08/29 07:48:25;;;;;;;2.80;2.60;;;;;;;17.78;77.05;101546.38;6185873;28;20233;-51
2021/08/29 07:51:46;;;;;;;1.10;1.10;;;;;;;17.97;75.96;101543.25;6189883;28;20230;-49
2021/08/29 07:55:27;;;;;;;1.30;1.30;;;;;;;17.97;76.01;101541.50;6176674;28;20330;-52
2021/08/29 07:59:11;;;;;;;1.20;1.20;;;;;;;17.97;76.21;101548.53;6180449;28;20231;-53
2021/08/29 08:02:32;;;;;;;1.90;1.80;;;;;;;17.66;77.34;101546.69;6163482;28;20241;-50
2021/08/29 08:06:17;;;;;;;1.70;1.60;;;;;;;17.76;77.90;101550.84;6152790;28;20222;-53
2021/08/29 08:10:11;;;;;;;1.40;1.30;;;;;;;17.82;77.41;101550.66;6174679;28;20257;-52
2021/08/29 08:14:01;;;;;;;2.10;1.50;;;;;;;17.97;76.65;101552.03;6174987;28;20261;-50
2021/08/29 08:17:23;;;;;;;2.10;1.90;;;;;;;18.12;76.45;101553.34;6171971;28;20308;-48
2021/08/29 08:20:44;;;;;;;1.57;1.47;;;;;;;18.02;76.82;101558.03;6183530;28;20592;-51
2021/08/29 08:24:24;;;;;;;1.77;1.40;;;;;;;18.58;75.56;101552.00;6184894;28;20624;-52
2021/08/29 08:28:11;;;;;;;2.05;0.90;;;;;;;18.91;73.15;101551.88;6177612;28;20237;-52
2021/08/29 08:31:52;;;;;;;1.25;1.08;;;;;;;19.22;72.03;101551.72;6183262;28;20257;-51
2021/08/29 08:35:45;;;;;;;2.08;1.27;;;;;;;19.58;70.27;101556.69;6170429;28;20233;-50
2021/08/29 08:39:11;;;;;;;0.90;0.82;;;;;;;19.51;70.37;101559.59;6172283;28;20627;-55
2021/08/29 08:42:52;;;;;;;46.53;42.58;;;;;;;19.71;73.76;101549.16;6181638;28;20242;-57
2021/08/29 08:46:32;;;;;;;717.40;596.15;;;;;;;20.07;72.28;101551.44;6171776;28;20272;-55
2021/08/29 08:50:21;;;;;;;835.42;764.17;;;;;;;20.44;71.47;101552.69;6150281;28;20230;-48
2021/08/29 08:54:07;;;;;;;894.25;746.40;;;;;;;20.62;69.44;101546.69;6157207;28;20799;-52
2021/08/29 08:57:53;;;;;;;1733.30;999.90;;;;;;;20.89;70.01;101554.44;6167708;28;20318;-56
2021/08/29 09:01:37;;;;;;;1304.10;913.92;;;;;;;20.91;68.04;101557.03;6146483;28;20230;-50
2021/08/29 09:05:16;;;;;;;56.67;51.42;;;;;;;20.05;69.91;101556.78;6173712;28;20838;-53
2021/08/29 09:08:38;;;;;;;5.32;4.85;;;;;;;20.03;71.00;101550.69;6183779;28;20226;-50
2021/08/29 09:11:59;;;;;;;2.10;2.00;;;;;;;20.22;70.09;101545.56;6166447;28;20235;-50
2021/08/29 09:15:22;;;;;;;1.73;1.63;;;;;;;20.39;69.26;101554.63;6186557;28;20226;-50
2021/08/29 09:18:48;;;;;;;1.70;1.60;;;;;;;20.20;70.34;101555.34;6147959;28;20229;-49
2021/08/29 09:22:10;;;;;;;1.83;1.73;;;;;;;20.40;69.78;101551.06;6179917;28;21068;-54
2021/08/29 09:25:32;;;;;;;1.50;1.40;;;;;;;20.33;69.79;101549.56;6171326;28;20518;-49
2021/08/29 09:29:08;;;;;;;2.47;2.28;;;;;;;20.31;69.83;101562.00;6187106;28;20230;-53
2021/08/29 09:32:30;;;;;;;1.77;1.45;;;;;;;20.15;69.89;101559.94;6188815;28;20833;-52
2021/08/29 09:35:57;;;;;;;2.50;1.88;;;;;;;19.97;71.58;101564.13;6177911;28;20277;-53
2021/08/29 09:39:37;;;;;;;1.30;1.23;;;;;;;19.70;72.83;101565.94;6191646;28;20234;-52
2021/08/29 09:43:35;;;;;;;1.70;1.60;;;;;;;19.76;73.01;101564.91;6199332;28;20226;-54
2021/08/29 09:46:58;;;;;;;4.13;2.50;;;;;;;19.88;72.65;101568.88;6168337;28;20245;-50
2021/08/29 09:50:41;;;;;;;2.33;2.13;;;;;;;20.14;71.70;101570.56;6177650;28;20635;-48
2021/08/29 09:54:31;;;;;;;0.73;0.73;;;;;;;19.88;72.70;101563.59;6160374;28;20230;-49
2021/08/29 09:58:21;;;;;;;1.48;1.38;;;;;;;19.67;74.18;101571.31;6191623;28;20681;-53
2021/08/29 10:01:57;;;;;;;1.45;1.20;;;;;;;19.38;75.14;101575.84;6163245;28;20235;-58
2021/08/29 10:05:26;;;;;;;1.35;1.25;;;;;;;19.17;76.16;101585.31;6168387;28;20609;-53
2021/08/29 10:08:51;;;;;;;1.48;1.38;;;;;;;19.07;75.78;101576.00;6168613;28;20655;-49
2021/08/29 10:12:21;;;;;;;3.47;1.73;;;;;;;19.01;76.11;101581.47;6164708;28;20981;-52
2021/08/29 10:15:42;;;;;;;2.45;1.65;;;;;;;18.79;76.83;101581.28;6174706;28;20623;-51
2021/08/29 10:19:27;;;;;;;1.98;1.88;;;;;;;19.21;75.57;101579.06;6180852;28;20237;-53
2021/08/29 10:23:08;;;;;;;2.42;1.55;;;;;;;19.58;74.44;101579.56;6185956;28;20257;-51
2021/08/29 10:26:32;;;;;;;1.52;1.42;;;;;;;19.65;73.91;101573.16;6175104;28;20552;-51
2021/08/29 10:29:56;;;;;;;2.42;2.22;;;;;;;19.74;73.63;101572.88;6187769;28;20229;-53
2021/08/29 10:33:53;;;;;;;1.85;1.75;;;;;;;19.40;74.77;101576.63;6130583;28;20233;-54
2021/08/29 10:37:15;;;;;;;2.45;2.25;;;;;;;19.20;75.17;101579.09;6189585;28;20261;-49
2021/08/29 10:40:42;;;;;;;2.75;2.55;;;;;;;19.31;74.43;101579.63;6189251;28;20317;-48
2021/08/29 10:44:14;;;;;;;2.83;2.63;;;;;;;19.04;75.15;101570.81;6171226;28;20225;-56
2021/08/29 10:47:55;;;;;;;5.30;3.53;;;;;;;19.31;74.38;101576.97;6185017;28;20237;-52
2021/08/29 10:51:35;;;;;;;3.00;2.80;;;;;;;19.32;74.25;101576.03;6175374;28;20234;-52
2021/08/29 10:55:01;;;;;;;3.70;3.30;;;;;;;19.30;74.04;101577.03;6185472;28;20229;-53
2021/08/29 10:58:24;;;;;;;3.90;3.47;;;;;;;19.30;74.20;101579.66;6182859;28;20623;-52
2021/08/29 11:01:48;;;;;;;6.15;5.65;;;;;;;19.49;73.74;101583.41;6171550;28;20332;-55
2021/08/29 11:05:52;;;;;;;4.00;3.60;;;;;;;19.63;73.47;101593.50;6178444;28;20249;-52
2021/08/29 11:09:44;;;;;;;3.92;3.63;;;;;;;19.62;73.38;101591.78;6190142;28;20253;-52
2021/08/29 11:13:39;;;;;;;3.47;3.17;;;;;;;19.63;73.15;101601.41;6187763;28;20739;-50
2021/08/29 11:17:11;;;;;;;4.20;3.83;;;;;;;19.31;74.25;101606.03;6181901;28;20238;-49
2021/08/29 11:21:01;;;;;;;5.55;4.47;;;;;;;19.05;75.04;101610.34;6172537;28;20615;-54
2021/08/29 11:24:58;;;;;;;5.57;5.07;;;;;;;19.13;74.70;101606.59;6182538;28;20234;-51
2021/08/29 11:28:31;;;;;;;4.95;4.43;;;;;;;19.19;74.56;101616.97;6173483;28;20261;-52
2021/08/29 11:31:55;;;;;;;4.97;4.47;;;;;;;19.38;74.30;101617.22;6179374;28;20226;-48
2021/08/29 11:35:29;;;;;;;4.80;4.40;;;;;;;20.00;72.30;101616.88;6165780;28;20233;-52
2021/08/29 11:39:31;;;;;;;4.75;4.35;;;;;;;20.75;69.89;101605.28;6172275;28;20639;-54
2021/08/29 11:43:13;;;;;;;4.65;4.25;;;;;;;20.49;70.15;101606.28;6175582;28;20246;-53
2021/08/29 11:46:38;;;;;;;6.38;4.70;;;;;;;20.12;71.12;101599.69;6167200;28;20237;-54
2021/08/29 11:50:15;;;;;;;4.75;4.13;;;;;;;20.04;71.72;101615.84;6168162;28;20234;-51
2021/08/29 11:54:02;;;;;;;4.15;3.75;;;;;;;20.08;71.22;101618.38;6173721;28;20252;-51
2021/08/29 11:57:28;;;;;;;4.25;3.85;;;;;;;19.89;72.09;101612.88;6175118;28;20306;-53
2021/08/29 12:00:49;;;;;;;4.32;3.92;;;;;;;20.19;71.52;101611.78;6188879;28;20639;-52
2021/08/29 12:04:20;;;;;;;3.78;3.00;;;;;;;19.56;72.50;101621.03;6152331;28;20616;-53
2021/08/29 12:08:04;;;;;;;4.65;4.25;;;;;;;19.66;72.40;101617.19;6183554;28;20233;-50
2021/08/29 12:11:45;;;;;;;2.95;2.75;;;;;;;19.42;73.57;101630.28;6179508;28;20245;-50
2021/08/29 12:15:42;;;;;;;3.92;3.53;;;;;;;19.37;73.52;101626.94;6187592;28;20245;-52
2021/08/29 12:19:03;;;;;;;3.80;3.50;;;;;;;19.55;73.51;101621.97;6183529;28;20237;-53
2021/08/29 12:22:45;;;;;;;4.28;3.90;;;;;;;19.49;73.77;101625.66;6165932;28;20825;-55
2021/08/29 12:26:19;;;;;;;3.88;2.22;;;;;;;20.11;71.57;101615.63;6165231;28;20254;-49
2021/08/29 12:29:47;;;;;;;3.28;2.97;;;;;;;20.04;71.13;101628.19;6161842;28;20225;-51
2021/08/29 12:33:10;;;;;;;3.42;3.15;;;;;;;19.99;71.52;101624.88;6175460;28;20241;-54
2021/08/29 12:36:32;;;;;;;6.15;4.65;;;;;;;20.07;71.28;101620.16;6173203;28;20230;-48
2021/08/29 12:39:59;;;;;;;4.35;4.03;;;;;;;19.91;72.07;101618.97;6170979;28;20225;-55
2021/08/29 12:43:21;;;;;;;3.97;3.67;;;;;;;20.38;70.72;101616.41;6171275;28;20325;-50
2021/08/29 12:46:49;;;;;;;3.08;2.88;;;;;;;20.27;70.25;101620.28;6188025;28;20231;-51
2021/08/29 12:50:12;;;;;;;4.45;4.05;;;;;;;20.20;70.55;101613.53;6172581;28;20234;-54
2021/08/29 12:53:33;;;;;;;3.97;3.45;;;;;;;20.26;70.42;101618.59;6175939;28;20230;-53
2021/08/29 12:56:54;;;;;;;4.10;3.72;;;;;;;20.27;70.00;101620.28;6183165;28;20238;-50
2021/08/29 13:00:16;;;;;;;4.72;4.13;;;;;;;20.30;69.48;101623.75;6178771;28;20236;-54
2021/08/29 13:03:48;;;;;;;6.03;5.38;;;;;;;20.20;70.22;101612.63;6171880;28;20228;-50
2021/08/29 13:07:09;;;;;;;4.28;3.88;;;;;;;20.12;70.86;101620.84;6186249;28;20233;-50
2021/08/29 13:10:30;;;;;;;4.85;4.50;;;;;;;20.12;70.63;101625.28;6185880;28;20219;-54
2021/08/29 13:13:54;;;;;;;6.18;5.72;;;;;;;19.93;71.08;101630.34;6182591;28;20596;-50
2021/08/29 13:17:16;;;;;;;6.50;5.90;;;;;;;19.45;73.40;101635.47;6181609;28;20231;-52
2021/08/29 13:20:41;;;;;;;8.07;6.47;;;;;;;19.48;73.19;101640.66;6180145;28;20237;-51
2021/08/29 13:24:25;;;;;;;8.82;8.02;;;;;;;19.34;74.09;101640.22;6187784;28;20234;-49
2021/08/29 13:27:49;;;;;;;8.32;7.53;;;;;;;19.26;74.83;101642.25;6184720;28;20234;-52
2021/08/29 13:31:10;;;;;;;8.38;7.68;;;;;;;19.19;74.55;101643.38;6171295;28;20600;-54
2021/08/29 13:34:31;;;;;;;7.72;7.13;;;;;;;19.27;74.64;101641.38;6185926;28;20250;-48
2021/08/29 13:37:55;;;;;;;8.32;7.53;;;;;;;19.45;74.16;101640.75;6187732;28;20222;-55
2021/08/29 13:41:16;;;;;;;9.50;8.60;;;;;;;19.18;75.28;101639.00;6196049;28;20257;-52
2021/08/29 13:44:37;;;;;;;8.25;7.47;;;;;;;19.33;74.31;101641.16;6183990;28;20695;-53
2021/08/29 13:48:00;;;;;;;8.98;8.23;;;;;;;19.15;74.82;101639.09;6181651;28;20234;-51
2021/08/29 13:51:21;;;;;;;11.45;10.45;;;;;;;19.13;74.93;101640.94;6189125;28;20259;-53
2021/08/29 13:54:43;;;;;;;11.10;10.02;;;;;;;19.13;74.71;101647.06;6185564;28;21063;-53
2021/08/29 13:58:05;;;;;;;11.93;10.75;;;;;;;19.13;74.57;101638.28;6180015;28;20850;-52
2021/08/29 14:01:26;;;;;;;10.60;9.60;;;;;;;19.20;74.18;101642.47;6188566;28;20619;-52
2021/08/29 14:04:47;;;;;;;10.68;9.70;;;;;;;19.25;74.24;101645.81;6184064;28;20229;-52
2021/08/29 14:08:08;;;;;;;10.88;9.88;;;;;;;19.24;74.59;101652.03;6172489;28;20230;-53
2021/08/29 14:11:30;;;;;;;12.07;10.88;;;;;;;19.15;74.90;101645.25;6166438;28;20226;-52
2021/08/29 14:14:51;;;;;;;9.95;8.82;;;;;;;19.21;74.28;101650.34;6185996;28;20226;-50
2021/08/29 14:18:12;;;;;;;11.02;9.98;;;;;;;19.21;74.44;101652.09;6183231;28;20321;-50
2021/08/29 14:21:33;;;;;;;13.18;11.88;;;;;;;19.33;74.30;101653.47;6183080;28;20238;-48
2021/08/29 14:24:53;;;;;;;11.93;10.82;;;;;;;19.07;75.08;101648.13;6189908;28;20230;-53
2021/08/29 14:28:16;;;;;;;11.57;10.38;;;;;;;19.13;75.06;101648.84;6157350;28;20328;-56
2021/08/29 14:31:37;;;;;;;13.15;11.80;;;;;;;19.09;75.17;101656.00;6179290;28;20317;-54
2021/08/29 14:35:00;;;;;;;13.93;12.52;;;;;;;19.24;74.67;101662.59;6180667;28;20227;-50
2021/08/29 14:38:21;;;;;;;15.90;13.95;;;;;;;19.25;74.54;101659.91;6186416;28;20245;-53
2021/08/29 14:41:42;;;;;;;13.48;12.05;;;;;;;19.22;74.75;101661.75;6188801;28;20654;-50
2021/08/29 14:45:06;;;;;;;13.50;12.20;;;;;;;19.40;74.20;101653.22;6196158;28;20225;-52
2021/08/29 14:48:27;;;;;;;14.23;13.00;;;;;;;19.46;74.12;101653.06;6175540;28;20238;-55
2021/08/29 14:51:48;;;;;;;15.23;13.88;;;;;;;19.33;74.37;101653.47;6168936;28;20803;-52
2021/08/29 14:55:10;;;;;;;14.85;13.45;;;;;;;19.24;74.64;101654.66;6176559;28;20251;-52
2021/08/29 14:58:31;;;;;;;15.80;14.30;;;;;;;19.14;74.83;101655.88;6179424;28;20639;-53
2021/08/29 15:01:54;;;;;;;15.70;14.30;;;;;;;19.10;75.00;101660.38;6175568;28;20230;-51
2021/08/29 15:05:15;;;;;;;15.77;14.40;;;;;;;19.23;74.52;101658.19;6185875;28;20237;-50
2021/08/29 15:08:36;;;;;;;14.95;13.57;;;;;;;19.03;75.11;101662.31;6176058;28;20234;-51
2021/08/29 15:11:58;;;;;;;16.83;15.13;;;;;;;19.23;74.75;101669.66;6175421;28;20233;-49
2021/08/29 15:15:19;;;;;;;15.80;14.05;;;;;;;19.29;74.33;101665.94;6172811;28;20230;-54
2021/08/29 15:18:42;;;;;;;8.45;7.65;;;;;;;19.70;73.14;101670.75;6181550;28;20242;-51
2021/08/29 15:22:03;;;;;;;12.82;11.63;;;;;;;19.75;72.34;101659.16;6187451;28;20607;-52
2021/08/29 15:25:24;;;;;;;12.07;10.98;;;;;;;19.81;71.95;101658.97;6182926;28;20233;-53
2021/08/29 15:28:45;;;;;;;15.68;14.18;;;;;;;19.85;71.80;101663.22;6169194;28;20234;-50
2021/08/29 15:32:07;;;;;;;14.68;13.30;;;;;;;19.83;72.54;101656.25;6447044;22;20233;-55
2021/08/29 15:35:31;;;;;;;13.27;11.95;;;;;;;19.89;71.71;101660.47;6203919;28;20244;-53
2021/08/29 15:38:53;;;;;;;16.45;14.85;;;;;;;19.73;72.25;101663.63;6204111;28;20228;-55
2021/08/29 15:42:14;;;;;;;15.18;13.77;;;;;;;19.94;71.22;101663.81;6200425;28;20567;-52
2021/08/29 15:45:40;;;;;;;15.40;14.00;;;;;;;20.01;71.27;101671.47;6196798;28;20516;-51
2021/08/29 15:49:01;;;;;;;15.32;13.75;;;;;;;19.93;70.92;101665.59;6178952;28;20249;-48
2021/08/29 15:52:23;;;;;;;13.40;11.55;;;;;;;19.82;71.16;101663.31;6199150;28;20232;-48
2021/08/29 15:55:45;;;;;;;14.27;13.07;;;;;;;19.74;71.17;101677.72;6206115;28;20226;-51
2021/08/29 15:59:07;;;;;;;14.73;13.27;;;;;;;19.97;70.66;101666.38;6185061;28;20233;-53
2021/08/29 16:02:28;;;;;;;15.73;14.25;;;;;;;19.95;70.51;101665.53;6199249;28;20664;-53